createdAt,value
2018-04-17T00:01:07.144Z,93.16
2018-04-17T00:03:33.019Z,93.82
2018-04-17T00:05:59.925Z,94.66
2018-04-17T00:08:25.793Z,95.17
2018-04-17T00:10:51.636Z,95.38
2018-04-17T00:13:17.494Z,94.82
2018-04-17T00:15:43.371Z,95.05
2018-04-17T00:18:09.227Z,95.29
2018-04-17T00:20:35.074Z,94.62
2018-04-17T00:23:00.950Z,93.78
2018-04-17T00:25:26.797Z,93.45
2018-04-17T00:27:52.637Z,92.73
2018-04-17T00:30:18.520Z,93.35
2018-04-17T00:32:44.366Z,94.24
2018-04-17T00:35:10.232Z,95.18
2018-04-17T00:37:36.083Z,95.45
2018-04-17T00:40:01.923Z,95.68
2018-04-17T00:42:27.802Z,95.80
2018-04-17T00:44:53.657Z,95.85
2018-04-17T00:47:19.501Z,96.19
2018-04-17T00:49:45.347Z,96.35
2018-04-17T00:52:11.207Z,96.39
2018-04-17T00:54:37.062Z,96.58
2018-04-17T00:57:02.894Z,95.97
2018-04-17T00:59:28.742Z,95.54
2018-04-17T01:01:54.593Z,95.79
2018-04-17T01:04:20.464Z,95.40
2018-04-17T01:06:46.322Z,94.68
2018-04-17T01:09:12.170Z,94.29
2018-04-17T01:11:38.005Z,94.18
2018-04-17T01:14:03.854Z,94.47
2018-04-17T01:16:29.699Z,94.94
2018-04-17T01:18:55.579Z,95.52
2018-04-17T01:21:21.411Z,95.57
2018-04-17T01:23:47.251Z,96.17
2018-04-17T01:26:13.123Z,96.46
2018-04-17T01:28:38.974Z,96.71
2018-04-17T01:31:04.820Z,96.85
2018-04-17T01:33:30.707Z,96.85
2018-04-17T01:35:56.537Z,97.00
2018-04-17T01:38:22.375Z,97.37
2018-04-17T01:40:48.207Z,97.28
2018-04-17T01:43:14.041Z,97.26
2018-04-17T01:45:39.916Z,97.34
2018-04-17T01:48:05.760Z,97.32
2018-04-17T01:50:31.624Z,97.23
2018-04-17T01:52:57.489Z,97.35
2018-04-17T01:55:23.316Z,97.35
2018-04-17T01:57:49.154Z,96.91
2018-04-17T02:00:14.983Z,96.98
2018-04-17T02:02:40.837Z,96.72
2018-04-17T02:05:06.687Z,96.58
2018-04-17T02:07:32.540Z,96.79
2018-04-17T02:09:58.387Z,96.76
2018-04-17T02:12:24.225Z,96.73
2018-04-17T02:14:50.065Z,96.76
2018-04-17T02:17:15.908Z,96.81
2018-04-17T02:19:41.772Z,96.90
2018-04-17T02:22:07.615Z,96.95
2018-04-17T02:24:33.464Z,96.97
2018-04-17T02:26:59.337Z,96.44
2018-04-17T02:29:25.201Z,96.54
2018-04-17T02:31:51.046Z,96.57
2018-04-17T02:34:16.908Z,96.34
2018-04-17T02:36:42.771Z,96.87
2018-04-17T02:39:08.612Z,97.18
2018-04-17T02:41:34.501Z,97.24
2018-04-17T02:44:00.360Z,96.59
2018-04-17T02:46:26.242Z,96.34
2018-04-17T02:48:52.084Z,96.44
2018-04-17T02:51:17.945Z,96.40
2018-04-17T02:53:43.808Z,96.40
2018-04-17T02:56:10.528Z,96.17
2018-04-17T02:58:36.411Z,96.18
2018-04-17T03:01:02.269Z,95.95
2018-04-17T03:03:28.158Z,96.39
2018-04-17T03:05:54.004Z,96.23
2018-04-17T03:08:19.867Z,96.20
2018-04-17T03:10:45.710Z,96.50
2018-04-17T03:13:11.582Z,96.75
2018-04-17T03:15:37.429Z,96.78
2018-04-17T03:18:03.283Z,96.70
2018-04-17T03:20:29.156Z,96.69
2018-04-17T03:22:55.009Z,96.67
2018-04-17T03:25:20.892Z,96.82
2018-04-17T03:27:47.960Z,96.84
2018-04-17T03:30:13.828Z,96.90
2018-04-17T03:32:39.671Z,96.76
2018-04-17T03:35:05.537Z,96.58
2018-04-17T03:37:31.377Z,96.74
2018-04-17T03:39:57.244Z,96.75
2018-04-17T03:42:23.095Z,96.85
2018-04-17T03:44:48.947Z,96.93
2018-04-17T03:47:14.806Z,96.74
2018-04-17T03:49:40.651Z,97.06
2018-04-17T03:52:06.515Z,97.05
2018-04-17T03:54:32.372Z,97.06
2018-04-17T03:56:58.243Z,96.90
2018-04-17T03:59:24.091Z,96.77
2018-04-17T04:01:49.962Z,96.54
2018-04-17T04:04:15.827Z,96.57
2018-04-17T04:06:41.659Z,96.58
2018-04-17T04:09:07.530Z,96.51
2018-04-17T04:11:33.371Z,96.25
2018-04-17T04:13:59.259Z,96.69
2018-04-17T04:16:37.360Z,96.07
2018-04-17T04:19:15.511Z,96.49
2018-04-17T04:21:53.744Z,96.59
2018-04-17T04:24:31.936Z,96.63
2018-04-17T04:26:57.777Z,96.56
2018-04-17T04:29:23.638Z,96.69
2018-04-17T04:31:49.470Z,96.79
2018-04-17T04:34:16.204Z,97.04
2018-04-17T04:36:42.036Z,96.95
2018-04-17T04:39:07.906Z,97.12
2018-04-17T04:41:33.756Z,97.10
2018-04-17T04:43:59.597Z,97.05
2018-04-17T04:46:25.429Z,97.16
2018-04-17T04:48:51.258Z,97.41
2018-04-17T04:51:17.118Z,97.35
2018-04-17T04:53:42.965Z,97.42
2018-04-17T04:56:08.826Z,97.41
2018-04-17T04:58:34.688Z,97.60
2018-04-17T05:01:00.532Z,97.66
2018-04-17T05:03:26.395Z,97.84
2018-04-17T05:05:52.258Z,97.82
2018-04-17T05:08:18.144Z,97.88
2018-04-17T05:10:44.003Z,97.93
2018-04-17T05:13:09.865Z,98.14
2018-04-17T05:15:35.721Z,98.36
2018-04-17T05:18:01.570Z,98.45
2018-04-17T05:20:27.456Z,98.33
2018-04-17T05:22:53.290Z,98.64
2018-04-17T05:25:19.156Z,98.71
2018-04-17T05:27:45.033Z,98.97
2018-04-17T05:30:10.892Z,99.06
2018-04-17T05:32:36.732Z,99.17
2018-04-17T05:35:02.633Z,99.24
2018-04-17T05:37:28.483Z,99.30
2018-04-17T05:39:54.510Z,99.47
2018-04-17T05:42:20.361Z,99.63
2018-04-17T05:44:46.224Z,99.65
2018-04-17T05:47:12.090Z,99.78
2018-04-17T05:49:37.947Z,99.96
2018-04-17T05:52:03.793Z,100.00
2018-04-17T05:54:29.639Z,100.00
2018-04-17T05:56:55.497Z,100.00
2018-04-17T05:59:21.359Z,100.00
2018-04-17T06:01:48.039Z,100.00
2018-04-17T06:04:13.871Z,99.93
2018-04-17T06:06:39.724Z,99.56
2018-04-17T06:09:05.589Z,99.62
2018-04-17T06:11:31.421Z,98.88
2018-04-17T06:13:57.293Z,98.89
2018-04-17T06:16:23.150Z,98.94
2018-04-17T06:18:48.994Z,99.12
2018-04-17T06:21:14.843Z,99.24
2018-04-17T06:23:40.695Z,98.66
2018-04-17T06:26:06.589Z,98.13
2018-04-17T06:28:32.449Z,97.59
2018-04-17T06:30:58.317Z,97.32
2018-04-17T06:33:24.153Z,96.52
2018-04-17T06:35:50.081Z,94.84
2018-04-17T06:38:15.930Z,94.72
2018-04-17T06:40:41.784Z,95.23
2018-04-17T06:43:07.648Z,94.46
2018-04-17T06:45:33.502Z,94.49
2018-04-17T06:47:59.360Z,94.41
2018-04-17T06:50:25.432Z,94.64
2018-04-17T06:52:51.296Z,94.00
2018-04-17T06:55:17.157Z,92.67
2018-04-17T06:57:43.023Z,91.52
2018-04-17T07:00:08.898Z,90.82
2018-04-17T07:02:34.751Z,91.95
2018-04-17T07:05:00.614Z,93.17
2018-04-17T07:07:26.475Z,93.66
2018-04-17T07:09:52.327Z,93.03
2018-04-17T07:12:18.197Z,91.80
2018-04-17T07:14:44.068Z,90.76
2018-04-17T07:17:09.915Z,89.33
2018-04-17T07:19:35.779Z,89.02
2018-04-17T07:22:01.674Z,88.39
2018-04-17T07:24:27.553Z,88.51
2018-04-17T07:26:53.407Z,89.78
2018-04-17T07:29:19.262Z,91.58
2018-04-17T07:31:45.146Z,91.01
2018-04-17T07:34:11.014Z,89.06
2018-04-17T07:36:36.855Z,87.80
2018-04-17T07:39:02.751Z,88.67
2018-04-17T07:41:28.609Z,89.73
2018-04-17T07:43:54.488Z,87.83
2018-04-17T07:46:20.357Z,85.37
2018-04-17T07:48:49.171Z,87.42
2018-04-17T07:51:15.410Z,86.45
2018-04-17T07:53:41.246Z,86.98
2018-04-17T07:56:07.158Z,87.13
2018-04-17T07:58:32.993Z,83.74
2018-04-17T08:00:58.854Z,82.49
2018-04-17T08:03:24.709Z,84.22
2018-04-17T08:08:43.553Z,82.82
2018-04-17T08:11:09.395Z,84.01
2018-04-17T08:13:35.251Z,83.11
2018-04-17T08:16:01.104Z,82.07
2018-04-17T08:18:26.945Z,79.09
2018-04-17T08:20:52.804Z,80.14
2018-04-17T08:23:18.670Z,79.46
2018-04-17T08:25:44.534Z,76.63
2018-04-17T08:28:10.399Z,77.06
2018-04-17T08:30:36.263Z,78.18
2018-04-17T08:33:02.114Z,77.76
2018-04-17T08:35:27.985Z,76.04
2018-04-17T08:37:53.831Z,74.72
2018-04-17T08:40:19.715Z,74.67
2018-04-17T08:42:45.610Z,73.88
2018-04-17T08:45:11.485Z,76.63
2018-04-17T08:47:37.352Z,75.44
2018-04-17T08:50:03.224Z,77.02
2018-04-17T08:52:29.084Z,78.15
2018-04-17T08:54:54.938Z,79.98
2018-04-17T08:57:20.777Z,78.17
2018-04-17T08:59:46.598Z,80.40
2018-04-17T09:02:12.452Z,79.52
2018-04-17T09:04:38.291Z,79.80
2018-04-17T09:07:04.163Z,79.42
2018-04-17T09:09:30.019Z,79.71
2018-04-17T09:11:55.950Z,75.82
2018-04-17T09:14:21.777Z,73.54
2018-04-17T09:16:47.628Z,73.58
2018-04-17T09:19:13.493Z,72.29
2018-04-17T09:21:39.334Z,72.62
2018-04-17T09:24:05.186Z,73.72
2018-04-17T09:26:31.033Z,72.85
2018-04-17T09:28:56.885Z,74.75
2018-04-17T09:31:22.744Z,72.11
2018-04-17T09:33:48.993Z,72.75
2018-04-17T09:36:14.821Z,70.33
2018-04-17T09:38:40.691Z,70.97
2018-04-17T09:41:06.543Z,69.26
2018-04-17T09:43:32.378Z,70.37
2018-04-17T09:45:59.723Z,68.68
2018-04-17T09:48:25.578Z,69.13
2018-04-17T09:50:51.415Z,70.65
2018-04-17T09:53:17.271Z,65.89
2018-04-17T09:55:43.156Z,64.40
2018-04-17T09:58:09.009Z,63.78
2018-04-17T10:00:40.846Z,64.44
2018-04-17T10:03:06.708Z,64.42
2018-04-17T10:05:32.538Z,66.01
2018-04-17T10:07:58.379Z,68.20
2018-04-17T10:10:24.209Z,62.04
2018-04-17T10:12:50.061Z,62.11
2018-04-17T10:15:15.902Z,62.68
2018-04-17T10:17:43.369Z,63.62
2018-04-17T10:20:09.198Z,64.22
2018-04-17T10:22:35.107Z,61.72
2018-04-17T10:25:00.935Z,62.51
2018-04-17T10:27:26.802Z,62.12
2018-04-17T10:29:52.675Z,61.60
2018-04-17T10:32:18.544Z,61.12
2018-04-17T10:34:44.409Z,58.37
2018-04-17T10:37:10.243Z,58.88
2018-04-17T10:39:36.086Z,59.83
2018-04-17T10:42:01.939Z,57.33
2018-04-17T10:44:27.931Z,57.87
2018-04-17T10:46:53.769Z,59.94
2018-04-17T10:49:19.633Z,59.56
2018-04-17T10:51:45.491Z,58.17
2018-04-17T10:54:11.341Z,57.22
2018-04-17T10:56:37.189Z,55.52
2018-04-17T10:59:03.060Z,54.50
2018-04-17T11:01:28.928Z,55.26
2018-04-17T11:03:54.766Z,54.75
2018-04-17T11:06:20.730Z,53.11
2018-04-17T11:08:46.575Z,53.01
2018-04-17T11:11:12.427Z,52.88
2018-04-17T11:13:38.291Z,52.42
2018-04-17T11:16:04.168Z,52.91
2018-04-17T11:18:29.988Z,49.72
2018-04-17T11:20:55.810Z,48.79
2018-04-17T11:23:21.691Z,48.61
2018-04-17T11:25:47.534Z,48.77
2018-04-17T11:28:13.412Z,46.28
2018-04-17T11:30:39.238Z,47.43
2018-04-17T11:33:05.110Z,49.18
2018-04-17T11:35:30.971Z,46.66
2018-04-17T11:37:56.840Z,45.50
2018-04-17T11:40:22.697Z,43.29
2018-04-17T11:42:48.574Z,44.40
2018-04-17T11:45:14.412Z,42.04
2018-04-17T11:47:40.271Z,44.23
2018-04-17T11:50:06.128Z,43.22
2018-04-17T11:52:31.987Z,45.58
2018-04-17T11:54:57.851Z,44.59
2018-04-17T11:57:23.692Z,44.95
2018-04-17T11:59:49.563Z,46.78
2018-04-17T12:02:15.423Z,48.30
2018-04-17T12:04:41.261Z,46.19
2018-04-17T12:07:07.136Z,45.38
2018-04-17T12:09:47.949Z,43.96
2018-04-17T12:12:13.832Z,43.59
2018-04-17T12:14:39.748Z,44.71
2018-04-17T12:17:05.545Z,47.75
2018-04-17T12:19:31.399Z,46.46
2018-04-17T12:21:57.263Z,45.34
2018-04-17T12:24:23.097Z,41.56
2018-04-17T12:26:48.949Z,40.80
2018-04-17T12:29:14.777Z,40.48
2018-04-17T12:31:40.661Z,40.31
2018-04-17T12:34:06.503Z,39.27
2018-04-17T12:36:32.340Z,37.90
2018-04-17T12:38:58.174Z,41.10
2018-04-17T12:41:24.023Z,38.25
2018-04-17T12:43:49.893Z,38.83
2018-04-17T12:46:15.761Z,41.24
2018-04-17T12:48:41.659Z,40.43
2018-04-17T12:51:07.495Z,38.81
2018-04-17T12:53:33.355Z,37.25
2018-04-17T12:55:59.211Z,37.76
2018-04-17T12:58:25.056Z,37.45
2018-04-17T13:00:50.895Z,37.83
2018-04-17T13:03:16.739Z,36.78
2018-04-17T13:05:44.239Z,36.86
2018-04-17T13:08:10.094Z,37.30
2018-04-17T13:10:35.976Z,35.63
2018-04-17T13:13:01.823Z,34.73
2018-04-17T13:15:27.702Z,35.68
2018-04-17T13:17:53.535Z,38.24
2018-04-17T13:20:19.433Z,36.55
2018-04-17T13:22:45.299Z,36.87
2018-04-17T13:25:11.146Z,36.19
2018-04-17T13:27:37.006Z,34.65
2018-04-17T13:30:02.903Z,36.13
2018-04-17T13:32:28.741Z,35.97
2018-04-17T13:34:54.599Z,35.89
2018-04-17T13:37:20.460Z,37.36
2018-04-17T13:39:46.311Z,34.91
2018-04-17T13:42:12.151Z,35.21
2018-04-17T13:44:38.018Z,38.07
2018-04-17T13:47:03.874Z,35.14
2018-04-17T13:49:29.716Z,33.99
2018-04-17T13:51:55.588Z,34.91
2018-04-17T13:54:21.433Z,34.85
2018-04-17T13:56:47.310Z,34.07
2018-04-17T13:59:13.179Z,33.82
2018-04-17T14:01:39.028Z,33.72
2018-04-17T14:04:04.889Z,34.75
2018-04-17T14:06:30.772Z,33.64
2018-04-17T14:08:56.658Z,33.99
2018-04-17T14:11:22.506Z,33.14
2018-04-17T14:13:48.376Z,34.58
2018-04-17T14:16:14.231Z,35.35
2018-04-17T14:18:40.077Z,33.77
2018-04-17T14:21:05.927Z,35.19
2018-04-17T14:23:31.785Z,33.50
2018-04-17T14:25:57.655Z,35.40
2018-04-17T14:28:23.514Z,32.97
2018-04-17T14:30:49.372Z,34.69
2018-04-17T14:33:15.215Z,32.49
2018-04-17T14:35:41.066Z,34.10
2018-04-17T14:38:06.917Z,34.42
2018-04-17T14:40:32.786Z,35.20
2018-04-17T14:42:58.656Z,35.93
2018-04-17T14:45:24.530Z,34.63
2018-04-17T14:47:50.399Z,33.78
2018-04-17T14:50:16.258Z,32.93
2018-04-17T14:52:42.101Z,34.03
2018-04-17T14:55:07.962Z,34.87
2018-04-17T14:57:33.814Z,34.06
2018-04-17T14:59:59.659Z,33.48
2018-04-17T15:02:25.523Z,34.42
2018-04-17T15:04:51.360Z,34.15
2018-04-17T15:07:17.218Z,37.07
2018-04-17T15:09:43.088Z,36.23
2018-04-17T15:12:08.945Z,34.24
2018-04-17T15:14:34.782Z,33.52
2018-04-17T15:17:00.648Z,34.05
2018-04-17T15:19:26.516Z,33.24
2018-04-17T15:21:52.384Z,33.82
2018-04-17T15:24:18.239Z,33.73
2018-04-17T15:26:44.089Z,34.82
2018-04-17T15:29:09.977Z,36.18
2018-04-17T15:31:35.829Z,36.21
2018-04-17T15:34:01.698Z,35.18
2018-04-17T15:36:27.555Z,34.50
2018-04-17T15:38:53.411Z,34.17
2018-04-17T15:41:19.271Z,34.84
2018-04-17T15:43:45.125Z,34.21
2018-04-17T15:46:10.969Z,35.33
2018-04-17T15:48:36.855Z,34.83
2018-04-17T15:51:02.714Z,36.21
2018-04-17T15:56:21.538Z,37.65
2018-04-17T15:58:47.911Z,40.52
2018-04-17T16:01:13.769Z,37.52
2018-04-17T16:03:39.629Z,38.64
2018-04-17T16:06:05.496Z,37.54
2018-04-17T16:08:31.400Z,35.26
2018-04-17T16:10:57.237Z,35.15
2018-04-17T16:13:23.072Z,36.86
2018-04-17T16:15:48.930Z,35.48
2018-04-17T16:18:14.780Z,34.68
2018-04-17T16:20:40.637Z,38.16
2018-04-17T16:23:06.496Z,35.53
2018-04-17T16:25:32.322Z,34.90
2018-04-17T16:27:58.186Z,36.08
2018-04-17T16:30:24.046Z,34.99
2018-04-17T16:32:49.893Z,36.13
2018-04-17T16:35:15.745Z,35.14
2018-04-17T16:37:41.624Z,33.38
2018-04-17T16:40:07.483Z,34.28
2018-04-17T16:42:33.367Z,33.22
2018-04-17T16:44:59.250Z,35.43
2018-04-17T16:47:25.109Z,36.08
2018-04-17T16:49:50.986Z,38.00
2018-04-17T16:52:18.783Z,42.03
2018-04-17T16:54:44.656Z,42.97
2018-04-17T16:57:10.493Z,44.08
2018-04-17T16:59:36.352Z,46.92
2018-04-17T17:02:02.194Z,45.24
2018-04-17T17:04:28.055Z,44.76
2018-04-17T17:06:53.949Z,48.13
2018-04-17T17:09:19.803Z,48.90
2018-04-17T17:11:45.676Z,47.59
2018-04-17T17:14:11.542Z,45.71
2018-04-17T17:16:37.377Z,48.62
2018-04-17T17:19:03.251Z,51.22
2018-04-17T17:21:29.130Z,53.13
2018-04-17T17:23:54.985Z,50.72
2018-04-17T17:26:20.901Z,45.25
2018-04-17T17:28:46.776Z,46.84
2018-04-17T17:31:12.681Z,44.63
2018-04-17T17:33:38.614Z,44.74
2018-04-17T17:36:04.538Z,48.25
2018-04-17T17:38:30.468Z,54.48
2018-04-17T17:40:56.320Z,56.49
2018-04-17T17:43:22.209Z,57.05
2018-04-17T17:45:48.070Z,60.88
2018-04-17T17:48:13.991Z,61.77
2018-04-17T17:50:39.874Z,60.44
2018-04-17T17:53:05.757Z,63.56
2018-04-17T17:55:31.632Z,62.60
2018-04-17T17:57:57.564Z,62.60
2018-04-17T18:00:23.433Z,64.65
2018-04-17T18:02:49.350Z,66.57
2018-04-17T18:05:15.252Z,67.09
2018-04-17T18:07:41.119Z,66.54
2018-04-17T18:10:06.987Z,67.23
2018-04-17T18:12:32.969Z,67.97
2018-04-17T18:14:59.785Z,68.87
2018-04-17T18:17:25.679Z,68.94
2018-04-17T18:19:51.625Z,69.42
2018-04-17T18:22:17.571Z,69.79
2018-04-17T18:24:43.473Z,70.42
2018-04-17T18:27:09.329Z,71.23
2018-04-17T18:29:35.185Z,71.57
2018-04-17T18:32:01.163Z,71.95
2018-04-17T18:34:27.858Z,71.15
2018-04-17T18:36:53.786Z,72.15
2018-04-17T18:39:19.717Z,72.41
2018-04-17T18:41:45.613Z,73.29
2018-04-17T18:44:11.538Z,74.37
2018-04-17T18:46:37.387Z,74.86
2018-04-17T18:49:04.178Z,75.12
2018-04-17T18:51:30.162Z,75.36
2018-04-17T18:53:56.001Z,74.45
2018-04-17T18:56:21.872Z,75.19
2018-04-17T18:58:47.751Z,75.64
2018-04-17T19:01:13.819Z,76.17
2018-04-17T19:03:39.742Z,75.56
2018-04-17T19:06:05.665Z,75.24
2018-04-17T19:08:31.633Z,75.04
2018-04-17T19:10:57.538Z,74.92
2018-04-17T19:13:23.484Z,74.84
2018-04-17T19:15:49.350Z,75.42
2018-04-17T19:18:15.285Z,75.05
2018-04-17T19:20:41.247Z,75.86
2018-04-17T19:23:08.104Z,75.14
2018-04-17T19:25:34.063Z,75.18
2018-04-17T19:28:00.004Z,75.22
2018-04-17T19:33:18.888Z,77.12
2018-04-17T19:35:44.911Z,77.05
2018-04-17T19:38:11.824Z,77.02
2018-04-17T19:40:37.692Z,77.78
2018-04-17T19:43:03.700Z,78.43
2018-04-17T19:45:29.693Z,78.12
2018-04-17T19:47:55.559Z,78.21
2018-04-17T19:50:21.479Z,77.93
2018-04-17T19:52:47.406Z,77.17
2018-04-17T19:55:13.307Z,77.52
2018-04-17T19:57:39.248Z,77.67
2018-04-17T20:00:05.123Z,78.23
2018-04-17T20:02:31.374Z,78.21
2018-04-17T20:04:57.428Z,78.16
2018-04-17T20:07:23.340Z,78.35
2018-04-17T20:09:49.312Z,78.67
2018-04-17T20:12:15.179Z,79.29
2018-04-17T20:14:41.078Z,79.58
2018-04-17T20:17:06.930Z,79.70
2018-04-17T20:19:32.801Z,80.52
2018-04-17T20:21:58.758Z,80.66
2018-04-17T20:24:24.705Z,80.63
2018-04-17T20:26:50.623Z,80.67
2018-04-17T20:29:16.601Z,81.09
2018-04-17T20:31:42.505Z,81.48
2018-04-17T20:34:08.407Z,81.59
2018-04-17T20:36:34.282Z,81.61
2018-04-17T20:39:00.123Z,81.55
2018-04-17T20:41:26.660Z,81.60
2018-04-17T20:43:53.559Z,82.18
2018-04-17T20:46:19.491Z,81.80
2018-04-17T20:48:45.391Z,82.20
2018-04-17T20:51:11.326Z,82.64
2018-04-17T20:53:37.239Z,82.79
2018-04-17T20:56:03.150Z,83.23
2018-04-17T20:58:29.018Z,83.12
2018-04-17T21:00:54.866Z,83.50
2018-04-17T21:03:20.818Z,83.71
2018-04-17T21:05:46.729Z,83.95
2018-04-17T21:08:12.608Z,83.95
2018-04-17T21:10:38.533Z,83.90
2018-04-17T21:13:04.486Z,83.80
2018-04-17T21:15:30.360Z,83.98
2018-04-17T21:17:56.234Z,83.97
2018-04-17T21:20:22.111Z,84.07
2018-04-17T21:22:47.991Z,84.45
2018-04-17T21:25:13.866Z,84.38
2018-04-17T21:27:39.732Z,84.60
2018-04-17T21:30:05.584Z,84.62
2018-04-17T21:32:31.444Z,84.50
2018-04-17T21:34:57.313Z,84.61
2018-04-17T21:37:23.155Z,84.67
2018-04-17T21:39:49.032Z,84.64
2018-04-17T21:42:14.890Z,84.54
2018-04-17T21:44:40.755Z,84.62
2018-04-17T21:47:06.610Z,84.30
2018-04-17T21:49:32.488Z,84.49
2018-04-17T21:51:58.352Z,84.57
2018-04-17T21:54:24.205Z,84.25
2018-04-17T21:56:50.050Z,84.42
2018-04-17T21:59:15.925Z,84.84
2018-04-17T22:01:41.794Z,84.87
2018-04-17T22:04:07.652Z,85.03
2018-04-17T22:06:33.472Z,84.79
2018-04-17T22:08:59.331Z,85.08
2018-04-17T22:11:25.193Z,85.24
2018-04-17T22:13:51.082Z,85.08
2018-04-17T22:16:16.934Z,84.73
2018-04-17T22:18:42.812Z,84.93
2018-04-17T22:21:08.706Z,85.13
2018-04-17T22:23:34.567Z,85.24
2018-04-17T22:26:00.464Z,85.20
2018-04-17T22:28:26.307Z,85.31
2018-04-17T22:30:52.162Z,85.54
2018-04-17T22:33:17.996Z,85.62
2018-04-17T22:35:43.840Z,85.69
2018-04-17T22:38:09.715Z,85.70
2018-04-17T22:40:35.594Z,85.87
2018-04-17T22:43:01.500Z,85.82
2018-04-17T22:45:27.361Z,85.94
2018-04-17T22:47:53.233Z,85.68
2018-04-17T22:50:19.108Z,85.82
2018-04-17T22:52:44.989Z,86.01
2018-04-17T22:55:10.852Z,86.36
2018-04-17T22:57:36.757Z,86.53
2018-04-17T23:00:02.657Z,86.52
2018-04-17T23:02:28.489Z,86.19
2018-04-17T23:04:54.333Z,86.17
2018-04-17T23:07:20.179Z,86.07
2018-04-17T23:09:46.034Z,86.30
2018-04-17T23:12:11.884Z,86.38
2018-04-17T23:14:37.744Z,86.41
2018-04-17T23:17:03.578Z,86.15
2018-04-17T23:19:29.430Z,86.28
2018-04-17T23:21:55.272Z,86.60
2018-04-17T23:24:21.125Z,86.48
2018-04-17T23:26:46.987Z,86.65
2018-04-17T23:29:12.834Z,86.77
2018-04-17T23:31:38.692Z,86.81
2018-04-17T23:34:04.556Z,86.99
2018-04-17T23:36:30.415Z,87.09
2018-04-17T23:38:56.263Z,87.00
2018-04-17T23:41:22.115Z,87.03
2018-04-17T23:43:47.962Z,87.28
2018-04-17T23:46:13.843Z,87.45
2018-04-17T23:48:39.695Z,87.50
2018-04-17T23:51:05.530Z,87.47
2018-04-17T23:53:31.402Z,87.83
2018-04-17T23:55:57.272Z,87.92
2018-04-17T23:58:23.116Z,87.96
